Time;durP1;ratioP1;P1;durP2;ratioP2;P2;SDS_P1;SDS_P2;PMS_P1;PMS_P2;Temp;Humidity;BMP_temperature;BMP_pressure;BME280_temperature;BME280_humidity;BME280_pressure;Samples;Min_cycle;Max_cycle;Signal;HPM_P1;HPM_P2
2023/01/12 00:02:07;;;;;;;34.33;7.75;;;;;;;6.80;100.00;100925.19;5054748;28;20021;-49
2023/01/12 00:04:33;;;;;;;34.30;7.72;;;;;;;6.82;100.00;100923.59;5054858;28;20029;-48
2023/01/12 00:06:58;;;;;;;38.83;7.93;;;;;;;6.85;100.00;100928.84;5055505;28;20476;-47
2023/01/12 00:09:25;;;;;;;32.75;6.95;;;;;;;6.87;100.00;100919.56;5054492;28;20025;-46
2023/01/12 00:11:50;;;;;;;40.60;8.85;;;;;;;6.87;100.00;100901.63;5054885;28;20415;-49
2023/01/12 00:14:15;;;;;;;31.38;6.70;;;;;;;6.91;100.00;100915.44;5055196;28;20029;-47
2023/01/12 00:16:41;;;;;;;33.58;6.57;;;;;;;6.92;100.00;100910.38;5054478;28;20033;-47
2023/01/12 00:19:20;;;;;;;38.05;6.60;;;;;;;6.95;100.00;100909.66;5054906;28;20032;-46
2023/01/12 00:22:10;;;;;;;35.90;6.10;;;;;;;6.98;100.00;100896.09;5054801;28;20028;-47
2023/01/12 00:24:41;;;;;;;34.10;6.80;;;;;;;7.00;100.00;100902.19;5054833;28;20017;-48
2023/01/12 00:27:09;;;;;;;32.67;7.00;;;;;;;7.00;100.00;100902.19;5055077;28;20037;-49
2023/01/12 00:29:36;;;;;;;33.47;6.40;;;;;;;7.01;100.00;100893.66;5053846;28;20025;-48
2023/01/12 00:32:01;;;;;;;32.55;7.57;;;;;;;7.01;100.00;100893.66;5054968;28;20032;-48
2023/01/12 00:34:27;;;;;;;40.60;7.85;;;;;;;7.01;100.00;100889.44;5054679;28;20033;-48
2023/01/12 00:36:53;;;;;;;41.78;7.70;;;;;;;7.03;100.00;100877.53;5054400;28;20032;-48
2023/01/12 00:39:18;;;;;;;31.80;7.63;;;;;;;7.04;100.00;100869.06;5054763;28;20025;-48
2023/01/12 00:47:13;;;;;;;36.67;6.93;;;;;;;7.06;100.00;100864.88;5054623;28;20059;-48
2023/01/12 00:49:40;;;;;;;41.55;7.55;;;;;;;7.08;100.00;100859.81;5053747;28;20111;-49
2023/01/12 00:52:06;;;;;;;38.45;7.47;;;;;;;7.09;100.00;100857.31;5053939;28;20021;-49
2023/01/12 00:54:33;;;;;;;36.78;7.30;;;;;;;7.10;100.00;100873.56;5053825;28;20493;-48
2023/01/12 00:56:58;;;;;;;33.45;8.02;;;;;;;7.08;100.00;100875.19;5054364;28;20065;-47
2023/01/12 00:59:23;;;;;;;31.38;8.50;;;;;;;7.04;100.00;100861.38;5053975;28;20053;-49
2023/01/12 01:01:49;;;;;;;39.20;8.18;;;;;;;7.04;100.00;100852.81;5053903;28;20025;-46
2023/01/12 01:04:14;;;;;;;40.65;7.75;;;;;;;7.04;100.00;100851.13;5053946;28;20028;-46
2023/01/12 01:06:40;;;;;;;34.85;8.77;;;;;;;7.06;100.00;100846.94;5053283;28;20037;-50
2023/01/12 01:09:06;;;;;;;39.45;8.93;;;;;;;7.07;100.00;100842.69;5054104;28;20104;-45
2023/01/12 01:11:32;;;;;;;42.92;8.18;;;;;;;7.06;100.00;100823.88;5053159;28;20128;-48
2023/01/12 01:13:58;;;;;;;39.75;9.10;;;;;;;7.07;100.00;100835.00;5054065;28;20119;-48
2023/01/12 01:16:23;;;;;;;37.55;8.43;;;;;;;7.07;100.00;100829.88;5054056;28;20036;-47
2023/01/12 01:18:49;;;;;;;43.00;8.63;;;;;;;7.07;100.00;100827.31;5053009;28;20031;-47
2023/01/12 01:21:14;;;;;;;44.38;9.38;;;;;;;7.09;100.00;100825.69;5053891;28;20112;-48
2023/01/12 01:23:41;;;;;;;42.60;9.57;;;;;;;7.08;100.00;100823.94;5053581;28;20052;-49
2023/01/12 01:26:12;;;;;;;44.15;9.18;;;;;;;7.09;100.00;100815.44;5053161;28;20100;-47
2023/01/12 01:28:38;;;;;;;43.40;8.70;;;;;;;7.09;100.00;100818.00;5053683;28;20126;-48
2023/01/12 01:31:12;;;;;;;43.65;9.75;;;;;;;7.09;100.00;100821.44;5053751;28;20470;-48
2023/01/12 01:33:37;;;;;;;44.42;8.38;;;;;;;7.06;100.00;100818.75;5052489;28;20040;-48
2023/01/12 01:36:03;;;;;;;47.10;9.52;;;;;;;7.06;100.00;100810.16;5053555;28;20021;-48
2023/01/12 01:38:29;;;;;;;49.03;9.93;;;;;;;7.07;100.00;100802.53;5053109;28;20025;-49
2023/01/12 01:40:54;;;;;;;50.00;9.15;;;;;;;7.05;100.00;100811.88;5052962;28;20028;-49
2023/01/12 01:43:22;;;;;;;47.05;10.27;;;;;;;7.06;100.00;100821.31;5053359;28;20372;-48
2023/01/12 01:46:06;;;;;;;47.22;9.52;;;;;;;7.06;100.00;100813.63;5053010;28;20040;-50
2023/01/12 01:48:35;;;;;;;53.28;8.52;;;;;;;7.07;100.00;100819.63;5052690;28;20401;-49
2023/01/12 01:51:08;;;;;;;51.67;9.25;;;;;;;7.08;100.00;100798.31;5053382;28;20029;-46
2023/01/12 01:53:36;;;;;;;56.75;10.48;;;;;;;7.09;100.00;100788.13;5052367;28;20029;-48
2023/01/12 01:56:08;;;;;;;;;;;;;;;7.14;100.00;100792.56;5053747;28;20032;-49
2023/01/12 01:58:38;;;;;;;52.97;9.88;;;;;;;7.09;100.00;100788.13;5052984;28;19919;-48
2023/01/12 02:01:04;;;;;;;53.25;9.38;;;;;;;7.08;100.00;100788.06;5051662;28;20109;-47
2023/01/12 02:03:30;;;;;;;45.97;8.55;;;;;;;7.05;100.00;100775.09;5052830;28;20109;-46
2023/01/12 02:05:57;;;;;;;45.13;8.20;;;;;;;7.06;100.00;100774.28;5053029;28;20163;-48
2023/01/12 02:08:32;;;;;;;49.25;9.18;;;;;;;7.05;100.00;100762.28;5052435;28;20028;-47
2023/01/12 02:11:00;;;;;;;45.53;9.35;;;;;;;7.03;100.00;100766.50;5053335;28;20144;-44
2023/01/12 02:16:24;;;;;;;49.55;8.75;;;;;;;7.03;100.00;100759.66;5052738;28;20158;-46
2023/01/12 02:19:01;;;;;;;60.07;8.47;;;;;;;7.01;100.00;100760.41;5052835;28;20036;-46
2023/01/12 02:22:04;;;;;;;51.47;9.43;;;;;;;7.00;100.00;100758.69;5052858;28;20036;-48
2023/01/12 02:25:22;;;;;;;58.08;9.50;;;;;;;7.00;100.00;100751.88;5052728;28;20104;-45
2023/01/12 02:28:09;;;;;;;66.30;9.50;;;;;;;6.99;100.00;100767.19;5030217;28;20044;-48
2023/01/12 02:30:58;;;;;;;45.42;8.63;;;;;;;6.99;100.00;100762.91;5029857;28;20042;-46
2023/01/12 02:33:52;;;;;;;56.85;9.10;;;;;;;7.01;100.00;100761.31;5049993;28;20084;-45
2023/01/12 02:36:36;;;;;;;54.70;8.43;;;;;;;7.03;100.00;100749.41;5051996;28;20033;-47
2023/01/12 02:39:26;;;;;;;59.55;8.57;;;;;;;7.04;100.00;100737.50;5053004;28;20029;-45
2023/01/12 02:45:15;;;;;;;49.30;8.15;;;;;;;7.08;100.00;100734.25;5052153;28;20515;-46
2023/01/12 02:47:55;;;;;;;47.05;8.57;;;;;;;7.08;100.00;100717.16;5052510;28;20029;-42
2023/01/12 02:50:30;;;;;;;58.28;9.40;;;;;;;7.09;100.00;100720.63;5051877;28;20495;-46
2023/01/12 02:53:03;;;;;;;52.90;9.23;;;;;;;7.13;100.00;100719.94;5052589;28;20036;-46
2023/01/12 02:55:30;;;;;;;45.00;8.32;;;;;;;7.12;100.00;100707.94;5052222;28;20029;-46
2023/01/12 02:57:57;;;;;;;53.67;9.05;;;;;;;7.11;100.00;100706.16;5051939;28;20025;-44
2023/01/12 03:00:22;;;;;;;51.85;8.30;;;;;;;7.11;100.00;100687.38;5052653;28;20029;-46
2023/01/12 03:02:49;;;;;;;39.92;7.90;;;;;;;7.14;100.00;100692.59;5052182;28;20029;-46
2023/01/12 03:05:14;;;;;;;44.72;8.23;;;;;;;7.15;100.00;100679.84;5051784;28;20044;-45
2023/01/12 03:07:58;;;;;;;38.05;7.05;;;;;;;7.16;100.00;100689.28;5052106;28;20484;-47
2023/01/12 03:10:38;;;;;;;43.03;7.90;;;;;;;7.14;100.00;100679.78;5052427;28;20032;-47
2023/01/12 03:13:08;;;;;;;48.70;8.07;;;;;;;7.12;100.00;100671.19;5055987;28;20033;-44
2023/01/12 03:15:38;;;;;;;37.83;7.32;;;;;;;7.12;100.00;100656.66;5055974;28;20029;-42
2023/01/12 03:18:15;;;;;;;43.20;8.32;;;;;;;7.16;100.00;100647.44;5055645;28;20025;-46
2023/01/12 03:20:49;;;;;;;49.10;8.20;;;;;;;7.17;100.00;100644.91;5055882;28;20036;-44
2023/01/12 03:23:20;;;;;;;49.90;8.15;;;;;;;7.18;100.00;100640.66;5056272;28;20032;-46
2023/01/12 03:25:48;;;;;;;39.85;8.95;;;;;;;7.15;100.00;100631.16;5055181;28;20044;-43
2023/01/12 03:28:17;;;;;;;42.33;7.43;;;;;;;7.17;100.00;100626.13;5056044;28;20021;-44
2023/01/12 03:30:53;;;;;;;47.40;7.25;;;;;;;7.16;100.00;100630.34;5055610;28;20032;-43
2023/01/12 03:33:19;;;;;;;38.13;7.95;;;;;;;7.17;100.00;100634.66;5055611;28;20024;-42
2023/01/12 03:35:55;;;;;;;33.72;6.95;;;;;;;7.17;100.00;100613.31;5055713;28;20029;-42
2023/01/12 03:38:34;;;;;;;40.65;6.80;;;;;;;7.17;100.00;100629.53;5055716;28;20036;-45
2023/01/12 03:41:08;;;;;;;39.58;7.70;;;;;;;7.19;100.00;100615.09;5055298;28;20025;-45
2023/01/12 03:43:41;;;;;;;36.63;7.18;;;;;;;7.17;100.00;100614.16;5055353;28;20419;-44
2023/01/12 03:46:18;;;;;;;36.55;6.85;;;;;;;7.20;100.00;100606.59;5055154;28;20108;-45
2023/01/12 03:49:05;;;;;;;29.80;6.18;;;;;;;7.23;100.00;100596.47;5055597;28;20025;-44
2023/01/12 03:51:38;;;;;;;40.05;6.57;;;;;;;7.23;100.00;100583.66;5055460;28;20044;-44
2023/01/12 03:54:06;;;;;;;35.75;6.15;;;;;;;7.25;100.00;100570.88;5054672;28;20144;-45
2023/01/12 03:56:35;;;;;;;31.30;5.82;;;;;;;7.25;100.00;100571.75;5055209;28;20473;-44
2023/01/12 03:59:02;;;;;;;33.03;5.65;;;;;;;7.27;100.00;100561.59;5055391;28;20059;-45
2023/01/12 04:01:27;;;;;;;27.55;4.72;;;;;;;7.26;100.00;100526.50;5054808;28;20037;-42
2023/01/12 04:03:52;;;;;;;35.47;5.90;;;;;;;7.27;100.00;100546.19;5055448;28;20124;-44
2023/01/12 04:06:18;;;;;;;37.95;6.25;;;;;;;7.24;100.00;100534.13;5054900;28;20037;-45
2023/01/12 04:08:43;;;;;;;35.42;5.68;;;;;;;7.22;100.00;100534.91;5054495;28;20503;-43
2023/01/12 04:13:52;;;;;;;35.85;5.63;;;;;;;7.22;100.00;100507.56;5054873;28;20094;-46
2023/01/12 04:16:18;;;;;;;40.13;6.07;;;;;;;7.23;100.00;100491.38;5054637;28;20112;-44
2023/01/12 04:18:43;;;;;;;38.90;6.80;;;;;;;7.21;100.00;100503.25;5054674;28;20040;-45
2023/01/12 04:22:41;;;;;;;37.33;6.10;;;;;;;7.21;100.00;100482.75;5054863;28;20033;-44
2023/01/12 04:23:54;;;;;;;36.75;6.35;;;;;;;7.22;100.00;100486.19;5053991;28;20025;-44
2023/01/12 04:26:20;;;;;;;37.78;6.63;;;;;;;7.21;100.00;100472.50;5055097;28;20365;-45
2023/01/12 04:28:45;;;;;;;41.92;6.95;;;;;;;7.20;100.00;100462.19;5054125;28;20411;-47
2023/01/12 04:31:10;;;;;;;32.28;7.38;;;;;;;7.19;100.00;100481.81;5054981;28;20025;-47
2023/01/12 04:33:36;;;;;;;41.08;7.25;;;;;;;7.21;100.00;100456.25;5054367;28;20029;-43
2023/01/12 04:36:01;;;;;;;30.10;7.15;;;;;;;7.19;100.00;100453.63;5054231;28;20050;-42
2023/01/12 04:38:26;;;;;;;36.17;6.82;;;;;;;7.19;100.00;100466.44;5054940;28;20354;-44
2023/01/12 04:40:54;;;;;;;34.80;6.53;;;;;;;7.19;100.00;100439.94;5054577;28;20017;-43
2023/01/12 04:43:20;;;;;;;39.38;7.15;;;;;;;7.18;100.00;100451.88;5053983;28;20025;-45
2023/01/12 04:45:46;;;;;;;30.92;5.82;;;;;;;7.19;100.00;100412.63;5054209;28;20039;-44
2023/01/12 04:48:14;;;;;;;31.40;6.25;;;;;;;7.21;100.00;100402.44;5054572;28;20102;-42
2023/01/12 04:50:40;;;;;;;29.23;6.78;;;;;;;7.21;100.00;100410.13;5053687;28;20407;-45
2023/01/12 04:53:07;;;;;;;32.28;6.38;;;;;;;7.24;100.00;100405.09;5054346;28;20469;-42
2023/01/12 04:55:35;;;;;;;41.70;6.20;;;;;;;7.21;100.00;100394.72;5053800;28;20028;-41
2023/01/12 04:58:00;;;;;;;40.83;6.22;;;;;;;7.23;100.00;100393.09;5053757;28;20029;-42
2023/01/12 05:00:26;;;;;;;23.83;5.10;;;;;;;7.25;100.00;100401.72;5054197;28;20075;-42
2023/01/12 05:03:01;;;;;;;36.63;5.25;;;;;;;7.26;100.00;100408.59;5053961;28;20499;-43
2023/01/12 05:05:28;;;;;;;33.85;5.55;;;;;;;7.26;100.00;100395.78;5053515;28;20503;-42
2023/01/12 05:10:38;;;;;;;34.35;5.65;;;;;;;7.24;100.00;100384.59;5053348;28;20099;-45
2023/01/12 05:13:04;;;;;;;31.70;5.25;;;;;;;7.23;100.00;100406.78;5053946;28;20029;-44
2023/01/12 05:15:29;;;;;;;32.30;5.50;;;;;;;7.23;100.00;100418.72;5053749;28;20113;-41
2023/01/12 05:17:55;;;;;;;45.70;6.10;;;;;;;7.23;100.00;100413.59;5053423;28;20029;-42
2023/01/12 05:20:21;;;;;;;41.22;6.20;;;;;;;7.25;100.00;100417.09;5054072;28;20063;-42
2023/01/12 05:22:47;;;;;;;34.35;5.40;;;;;;;7.23;100.00;100393.97;5053665;28;20487;-41
2023/01/12 05:25:13;;;;;;;28.58;5.35;;;;;;;7.25;100.00;100387.19;5053183;28;20100;-41
2023/01/12 05:27:39;;;;;;;29.20;4.97;;;;;;;7.24;100.00;100390.59;5053372;28;20029;-41
2023/01/12 05:30:05;;;;;;;28.23;5.30;;;;;;;7.22;100.00;100392.22;5053746;28;20438;-41
2023/01/12 05:32:35;;;;;;;32.80;5.55;;;;;;;7.24;100.00;100390.59;5052897;28;20057;-45
2023/01/12 05:35:01;;;;;;;36.20;5.32;;;;;;;7.28;100.00;100359.94;5053657;28;20035;-43
2023/01/12 05:37:27;;;;;;;33.75;5.57;;;;;;;7.24;100.00;100388.03;5053337;28;20036;-44
2023/01/12 05:39:52;;;;;;;28.40;5.13;;;;;;;7.25;100.00;100389.75;5053034;28;20048;-41
2023/01/12 05:45:01;;;;;;;39.70;5.45;;;;;;;7.25;100.00;100376.94;5053847;28;20047;-44
2023/01/12 05:47:27;;;;;;;30.70;5.53;;;;;;;7.24;100.00;100384.59;5052949;28;20498;-44
2023/01/12 05:49:52;;;;;;;35.80;5.40;;;;;;;7.22;100.00;100361.47;5053474;28;20033;-42
2023/01/12 05:52:17;;;;;;;33.03;5.20;;;;;;;7.22;100.00;100387.09;5053125;28;20021;-45
2023/01/12 05:54:43;;;;;;;33.28;5.85;;;;;;;7.20;100.00;100370.78;5052335;28;20103;-44
2023/01/12 05:57:08;;;;;;;28.52;5.00;;;;;;;7.20;100.00;100363.09;5053479;28;20079;-47
2023/01/12 05:59:33;;;;;;;27.65;5.00;;;;;;;7.21;100.00;100348.59;5052800;28;20491;-46
2023/01/12 06:01:58;;;;;;;30.00;4.88;;;;;;;7.22;100.00;100361.47;5052835;28;20071;-46
2023/01/12 06:04:24;;;;;;;27.63;4.90;;;;;;;7.20;100.00;100370.78;5053246;28;20074;-44
2023/01/12 06:06:49;;;;;;;21.88;5.43;;;;;;;7.25;100.00;100358.13;5051944;28;20400;-47
2023/01/12 06:09:14;;;;;;;24.95;5.53;;;;;;;7.28;100.00;100357.38;5053057;28;20106;-47
2023/01/12 06:14:23;;;;;;;22.65;4.80;;;;;;;7.32;100.00;100356.66;5052424;28;20095;-43
2023/01/12 06:16:49;;;;;;;26.52;5.00;;;;;;;7.33;100.00;100353.28;5052618;28;20032;-47
2023/01/12 06:19:14;;;;;;;20.38;4.28;;;;;;;7.35;100.00;100356.78;5052784;28;20487;-48
2023/01/12 06:21:39;;;;;;;26.75;4.72;;;;;;;7.36;100.00;100353.38;5052156;28;20036;-48
2023/01/12 06:24:05;;;;;;;23.92;4.10;;;;;;;7.39;100.00;100361.19;5053137;28;20112;-47
2023/01/12 06:26:30;;;;;;;23.73;4.13;;;;;;;7.43;100.00;100363.03;5052535;28;20029;-47
2023/01/12 06:28:56;;;;;;;24.65;4.05;;;;;;;7.44;100.00;100366.47;5052301;28;20028;-47
2023/01/12 06:31:21;;;;;;;19.05;4.30;;;;;;;7.48;100.00;100364.06;5052830;28;20473;-47
2023/01/12 06:33:46;;;;;;;22.00;4.65;;;;;;;7.50;100.00;100361.53;5052502;28;20384;-48
2023/01/12 06:36:12;;;;;;;13.13;4.22;;;;;;;7.50;100.00;100346.16;5052033;28;20100;-48
2023/01/12 06:38:37;;;;;;;19.67;3.80;;;;;;;7.49;100.00;100350.44;5052385;28;20025;-48
2023/01/12 06:41:05;;;;;;;16.73;3.30;;;;;;;7.53;100.00;100357.41;5052579;28;20017;-47
2023/01/12 06:43:30;;;;;;;15.35;3.28;;;;;;;7.57;100.00;100359.25;5051781;28;20455;-47
2023/01/12 06:45:56;;;;;;;20.08;3.28;;;;;;;7.57;100.00;100369.50;5053586;28;20048;-49
2023/01/12 06:48:24;;;;;;;15.23;2.97;;;;;;;7.55;100.00;100353.22;5056664;28;20047;-47
2023/01/12 06:50:50;;;;;;;18.33;3.88;;;;;;;7.56;100.00;100359.19;5055903;28;20028;-49
2023/01/12 06:53:15;;;;;;;15.63;3.75;;;;;;;7.57;100.00;100358.38;5056873;28;20033;-49
2023/01/12 06:55:47;;;;;;;20.02;3.72;;;;;;;7.56;100.00;100362.63;5055975;28;20033;-48
2023/01/12 06:58:12;;;;;;;14.05;3.28;;;;;;;7.57;100.00;100364.38;5056229;28;20079;-48
2023/01/12 07:00:38;;;;;;;15.40;3.50;;;;;;;7.62;100.00;100366.22;5056296;28;20025;-48
2023/01/12 07:03:03;;;;;;;13.05;3.10;;;;;;;7.65;100.00;100362.06;5055747;28;20025;-50
2023/01/12 07:05:28;;;;;;;22.55;4.05;;;;;;;7.65;100.00;100367.19;5055869;28;20123;-48
2023/01/12 07:07:59;;;;;;;12.10;3.42;;;;;;;7.68;100.00;100376.69;5056574;28;20044;-46
2023/01/12 07:10:26;;;;;;;12.88;3.92;;;;;;;7.65;100.00;100374.03;5055723;28;20132;-47
2023/01/12 07:12:51;;;;;;;11.48;3.22;;;;;;;7.66;100.00;100368.09;5056176;28;20124;-48
2023/01/12 07:15:16;;;;;;;9.18;3.00;;;;;;;7.68;100.00;100369.88;5056277;28;20032;-47
2023/01/12 07:17:41;;;;;;;10.30;3.15;;;;;;;7.70;100.00;100364.78;5055301;28;20096;-47
2023/01/12 07:20:08;;;;;;;12.13;2.72;;;;;;;7.70;100.00;100373.34;5056304;28;20029;-49
2023/01/12 07:22:33;;;;;;;14.20;2.92;;;;;;;7.70;100.00;100364.78;5055778;28;20045;-49
2023/01/12 07:24:58;;;;;;;12.10;3.20;;;;;;;7.70;100.00;100364.78;5055780;28;20052;-48
2023/01/12 07:27:24;;;;;;;13.52;3.05;;;;;;;7.71;100.00;100356.28;5055997;28;20479;-47
2023/01/12 07:29:49;;;;;;;12.40;2.83;;;;;;;7.72;100.00;100376.84;5055463;28;20033;-49
2023/01/12 07:32:14;;;;;;;12.30;2.95;;;;;;;7.73;100.00;100380.28;5055458;28;20021;-46
2023/01/12 07:34:39;;;;;;;11.13;2.88;;;;;;;7.76;100.00;100380.41;5055691;28;20021;-46
2023/01/12 07:37:05;;;;;;;12.20;3.22;;;;;;;7.75;100.00;100378.66;5055597;28;20025;-50
2023/01/12 07:39:30;;;;;;;8.98;3.00;;;;;;;7.77;100.00;100382.13;5055216;28;20108;-46
2023/01/12 07:44:40;;;;;;;12.13;3.10;;;;;;;7.76;100.00;100393.22;5055212;28;20099;-49
2023/01/12 07:47:06;;;;;;;14.45;3.33;;;;;;;7.77;100.00;100412.91;5055152;28;20108;-48
2023/01/12 07:49:31;;;;;;;11.13;3.08;;;;;;;7.77;100.00;100392.38;5055228;28;20031;-46
2023/01/12 07:51:57;;;;;;;13.75;3.90;;;;;;;7.75;100.00;100400.03;5055565;28;20029;-48
2023/01/12 07:54:22;;;;;;;11.85;3.30;;;;;;;7.78;100.00;100400.97;5054991;28;20035;-49
2023/01/12 07:56:47;;;;;;;12.18;4.82;;;;;;;7.80;100.00;100405.34;5055154;28;20443;-49
2023/01/12 07:59:13;;;;;;;11.43;3.63;;;;;;;7.80;100.00;100402.75;5055020;28;20024;-45
2023/01/12 08:01:39;;;;;;;13.50;4.50;;;;;;;7.82;100.00;100406.22;5054846;28;20029;-47
2023/01/12 08:04:05;;;;;;;15.32;4.18;;;;;;;7.83;100.00;100409.69;5055578;28;20025;-44
2023/01/12 08:06:32;;;;;;;9.25;3.35;;;;;;;7.86;100.00;100407.22;5054156;28;20037;-44
2023/01/12 08:08:57;;;;;;;12.45;3.25;;;;;;;7.84;100.00;100404.59;5055303;28;20045;-47
2023/01/12 08:11:23;;;;;;;12.05;3.30;;;;;;;7.85;100.00;100421.75;5055336;28;20036;-48
2023/01/12 08:13:53;;;;;;;12.32;3.20;;;;;;;7.88;100.00;100411.56;5054180;28;20025;-49
2023/01/12 08:16:23;;;;;;;9.48;2.90;;;;;;;7.94;100.00;100428.00;5055058;28;20025;-48
2023/01/12 08:19:01;;;;;;;12.60;3.60;;;;;;;7.95;100.00;100424.63;5054780;28;20048;-48
2023/01/12 08:21:32;;;;;;;11.63;3.45;;;;;;;7.94;100.00;100431.47;5054659;28;20025;-48
2023/01/12 08:24:03;;;;;;;8.55;3.13;;;;;;;7.95;100.00;100416.91;5055092;28;20035;-48
2023/01/12 08:26:37;;;;;;;11.35;3.15;;;;;;;7.97;100.00;100425.56;5054542;28;20391;-48
2023/01/12 08:29:11;;;;;;;10.82;3.45;;;;;;;7.98;100.00;100440.09;5054629;28;20029;-48
2023/01/12 08:31:37;;;;;;;10.25;3.25;;;;;;;8.00;100.00;100435.91;5054668;28;20372;-49
2023/01/12 08:34:03;;;;;;;12.85;3.53;;;;;;;8.00;100.00;100430.78;5054660;28;20035;-47
2023/01/12 08:36:30;;;;;;;10.30;3.30;;;;;;;8.02;100.00;100424.88;5053999;28;20029;-49
2023/01/12 08:38:55;;;;;;;9.82;3.80;;;;;;;8.05;100.00;100431.81;5054818;28;20041;-49
2023/01/12 08:41:33;;;;;;;13.10;3.40;;;;;;;8.05;100.00;100426.66;5054412;28;20056;-49
2023/01/12 08:44:00;;;;;;;11.32;4.10;;;;;;;8.06;100.00;100438.69;5054874;28;20025;-48
2023/01/12 08:46:25;;;;;;;13.48;4.05;;;;;;;8.07;100.00;100443.00;5054692;28;20106;-49
2023/01/12 08:48:52;;;;;;;11.38;4.22;;;;;;;8.06;100.00;100434.41;5053620;28;20064;-48
2023/01/12 08:51:18;;;;;;;10.50;3.83;;;;;;;8.08;100.00;100444.72;5054468;28;20422;-49
2023/01/12 08:53:43;;;;;;;10.55;5.10;;;;;;;8.07;100.00;100446.44;5053954;28;20520;-45
2023/01/12 08:56:09;;;;;;;11.02;3.63;;;;;;;8.10;100.00;100445.66;5053792;28;20081;-48
2023/01/12 08:58:34;;;;;;;8.45;3.60;;;;;;;8.13;100.00;100442.31;5054206;28;20027;-50
2023/01/12 09:01:08;;;;;;;11.65;3.50;;;;;;;8.16;100.00;100450.13;5054073;28;20040;-48
2023/01/12 09:03:34;;;;;;;10.38;3.67;;;;;;;8.18;100.00;100453.63;5053559;28;20024;-49
2023/01/12 09:06:10;;;;;;;9.88;3.40;;;;;;;8.20;100.00;100460.53;5054052;28;20068;-46
2023/01/12 09:08:36;;;;;;;12.93;3.70;;;;;;;8.22;100.00;100473.44;5053291;28;20072;-48
2023/01/12 09:11:05;;;;;;;10.20;3.67;;;;;;;8.23;100.00;100462.34;5053742;28;20474;-48
2023/01/12 09:13:34;;;;;;;10.88;3.20;;;;;;;8.23;100.00;100475.19;5053836;28;20028;-48
2023/01/12 09:16:07;;;;;;;9.82;3.58;;;;;;;8.24;100.00;100467.53;5053781;28;20029;-46
2023/01/12 09:18:33;;;;;;;7.68;3.42;;;;;;;8.26;100.00;100477.84;5053147;28;20025;-49
2023/01/12 09:21:04;;;;;;;9.27;3.30;;;;;;;8.26;100.00;100475.25;5053922;28;20040;-45
2023/01/12 09:23:29;;;;;;;14.25;4.05;;;;;;;8.28;100.00;100476.19;5053632;28;20110;-49
2023/01/12 09:25:55;;;;;;;10.25;4.28;;;;;;;8.30;100.00;100469.44;5053424;28;20488;-48
2023/01/12 09:28:20;;;;;;;9.02;3.92;;;;;;;8.32;100.00;100479.75;5053924;28;20350;-48
2023/01/12 09:30:45;;;;;;;8.48;3.50;;;;;;;8.32;100.00;100479.75;5052667;28;20114;-46
2023/01/12 09:33:11;;;;;;;9.02;3.40;;;;;;;8.33;100.00;100481.50;5053835;28;20481;-46
2023/01/12 09:35:36;;;;;;;6.88;3.58;;;;;;;8.33;100.00;100478.94;5053218;28;20036;-50
2023/01/12 09:38:02;;;;;;;9.95;3.17;;;;;;;8.33;100.00;100492.63;5053120;28;20029;-50
2023/01/12 09:40:27;;;;;;;9.75;3.22;;;;;;;8.34;100.00;100478.09;5053593;28;20031;-46
2023/01/12 09:48:22;;;;;;;9.35;2.95;;;;;;;8.41;100.00;100490.31;5053853;28;20036;-50
2023/01/12 09:50:53;;;;;;;8.23;3.08;;;;;;;8.41;100.00;100496.31;5053098;28;20033;-48
2023/01/12 09:53:27;;;;;;;6.53;2.60;;;;;;;8.44;100.00;100500.66;5053021;28;20037;-49
2023/01/12 09:56:28;;;;;;;8.07;2.97;;;;;;;8.46;100.00;100508.50;5053446;28;20040;-47
2023/01/12 09:59:11;;;;;;;7.13;2.35;;;;;;;8.47;100.00;100477.72;5047779;28;20044;-49
2023/01/12 10:01:36;;;;;;;5.63;2.50;;;;;;;8.46;100.00;100517.06;5053231;28;20037;-50
2023/01/12 10:04:03;;;;;;;8.05;2.10;;;;;;;8.48;100.00;100515.41;5052988;28;20024;-50
2023/01/12 10:06:30;;;;;;;4.57;2.38;;;;;;;8.49;100.00;100509.44;5052623;28;20048;-47
2023/01/12 10:09:08;;;;;;;5.40;1.80;;;;;;;8.49;100.00;100517.13;5053111;28;20469;-49
2023/01/12 10:12:10;;;;;;;4.28;1.95;;;;;;;8.52;100.00;100508.66;5052633;28;20087;-48
2023/01/12 10:14:41;;;;;;;5.80;2.15;;;;;;;8.50;100.00;100515.47;5052182;28;20083;-49
2023/01/12 10:17:29;;;;;;;5.07;1.95;;;;;;;8.49;100.00;100522.28;5052861;28;20039;-49
2023/01/12 10:20:08;;;;;;;;;;;;;;;8.55;100.00;100519.91;5052454;28;20057;-49
2023/01/12 10:22:56;;;;;;;4.65;2.45;;;;;;;8.51;100.00;100530.91;5052440;28;19958;-48
2023/01/12 10:25:21;;;;;;;5.63;3.15;;;;;;;8.49;100.00;100518.84;5052411;28;20025;-49
2023/01/12 10:27:49;;;;;;;7.70;3.75;;;;;;;8.49;100.00;100514.56;5052192;28;20587;-47
2023/01/12 10:30:24;;;;;;;6.15;2.25;;;;;;;8.47;100.00;100523.94;5052775;28;20427;-49
2023/01/12 10:32:50;;;;;;;4.80;2.38;;;;;;;8.48;100.00;100517.09;5052338;28;20086;-48
2023/01/12 10:35:18;;;;;;;7.70;2.90;;;;;;;8.49;100.00;100517.13;5052215;28;20021;-51
2023/01/12 10:37:50;;;;;;;6.78;4.07;;;;;;;8.52;100.00;100468.47;5052477;28;20486;-49
2023/01/12 10:40:23;;;;;;;6.15;1.90;;;;;;;8.52;100.00;100513.81;5052704;28;20039;-49
2023/01/12 10:43:21;;;;;;;4.30;1.90;;;;;;;8.52;100.00;100514.69;5051988;28;20132;-49
2023/01/12 10:46:09;;;;;;;5.35;2.25;;;;;;;8.54;100.00;100513.03;5052426;28;20025;-50
2023/01/12 10:48:34;;;;;;;6.47;2.13;;;;;;;8.53;100.00;100510.41;5051745;28;20033;-49
2023/01/12 10:51:05;;;;;;;4.03;1.70;;;;;;;8.55;100.00;100517.34;5052482;28;20514;-49
2023/01/12 10:53:39;;;;;;;4.60;1.80;;;;;;;8.58;100.00;100524.28;5051993;28;20484;-48
2023/01/12 10:56:26;;;;;;;3.92;2.17;;;;;;;8.62;100.00;100513.28;5052049;28;20032;-50
2023/01/12 10:58:58;;;;;;;3.85;1.63;;;;;;;8.62;100.00;100512.41;5052193;28;20025;-49
2023/01/12 11:01:24;;;;;;;5.45;1.75;;;;;;;8.62;100.00;100509.84;5052472;28;20033;-50
2023/01/12 11:03:50;;;;;;;7.47;2.20;;;;;;;8.63;100.00;100511.59;5051638;28;20040;-50
2023/01/12 11:06:26;;;;;;;3.50;1.83;;;;;;;8.65;100.00;100512.50;5052335;28;20120;-49
2023/01/12 11:08:52;;;;;;;4.10;2.25;;;;;;;8.64;100.00;100511.63;5051906;28;20025;-48
2023/01/12 11:11:23;;;;;;;5.40;1.95;;;;;;;8.66;100.00;100512.56;5051703;28;20025;-49
2023/01/12 11:13:52;;;;;;;5.68;2.10;;;;;;;8.68;100.00;100513.47;5052115;28;20457;-50
2023/01/12 11:16:30;;;;;;;4.70;1.70;;;;;;;8.69;100.00;100511.81;5051994;28;20021;-49
2023/01/12 11:19:11;;;;;;;3.33;2.00;;;;;;;8.71;100.00;100512.69;5052221;28;20464;-49
2023/01/12 11:21:41;;;;;;;6.75;2.38;;;;;;;8.72;100.00;100515.31;5051909;28;20033;-47
2023/01/12 11:24:36;;;;;;;4.43;2.30;;;;;;;8.77;100.00;100520.59;5052163;28;20021;-50
2023/01/12 11:27:12;;;;;;;4.03;1.98;;;;;;;8.75;100.00;100511.97;5052356;28;20530;-47
2023/01/12 11:29:59;;;;;;;5.00;2.22;;;;;;;8.78;100.00;100516.34;5051697;28;20377;-49
2023/01/12 11:32:36;;;;;;;5.88;2.20;;;;;;;8.77;100.00;100517.19;5053377;28;20029;-45
2023/01/12 11:35:50;;;;;;;5.22;3.28;;;;;;;8.80;100.00;100512.97;5055914;28;20043;-47
2023/01/12 11:38:25;;;;;;;4.25;2.58;;;;;;;8.76;100.00;100513.72;5033365;28;20026;-50
2023/01/12 11:40:54;;;;;;;6.40;2.88;;;;;;;8.75;100.00;100511.97;5033488;28;20033;-50
2023/01/12 11:46:18;;;;;;;5.40;2.38;;;;;;;8.73;100.00;100508.50;5055551;28;20140;-49
2023/01/12 11:49:11;;;;;;;6.82;2.90;;;;;;;8.75;100.00;100506.81;5055481;28;20029;-50
2023/01/12 11:51:37;;;;;;;5.38;2.30;;;;;;;8.75;100.00;100501.69;5054900;28;20021;-49
2023/01/12 11:54:06;;;;;;;3.88;2.17;;;;;;;8.73;100.00;100498.22;5055510;28;20063;-49
2023/01/12 11:56:49;;;;;;;6.15;3.03;;;;;;;8.73;100.00;100498.22;5054928;28;20461;-49
2023/01/12 11:59:20;;;;;;;5.40;3.10;;;;;;;8.75;100.00;100495.69;5054958;28;20032;-49
2023/01/12 12:02:23;;;;;;;4.82;2.60;;;;;;;8.77;100.00;100494.91;5055393;28;20021;-50
2023/01/12 12:05:04;;;;;;;4.25;2.53;;;;;;;8.76;100.00;100498.31;5054715;28;20029;-50
2023/01/12 12:07:56;;;;;;;8.63;3.83;;;;;;;8.77;100.00;100494.91;5054450;28;20029;-49